LEASLECO

Guest
Details From LEAS - Asturias
To LECO - A Coruna
Flight Number -
Tags decoded
Created
Modified
Stats Distance 106 nm / 197 km
Max Altitude 0 ft / 0 m
Waypoints 4
Social Downloads 0
Likes 0
Share VATSIM

Download

Looking for another format? Having issues loading an existing format? Contact us
Advertisement - Login to hide

Notes

Requested: LEAS MASIP R42 ROXER LECO Unmatched points: R42

Route

LEAS MASIP ROXER LECO

ID Type Via Altitude Latitude Longitude Leg Dist Tot Dist Heading (true) Name
O LEAS APT - 0 ft / 0 m 43.56350˚ -6.03467˚ - 0 nm - Asturias
MASIP FIX - 0 ft / 0 m 43.38944˚ -6.65556˚ 29 nm 29 nm 249° / 249° -
ROXER FIX - 0 ft / 0 m 43.21844˚ -7.36010˚ 32 nm 61 nm 252° / 251° -
O LECO APT - 0 ft / 0 m 43.30226˚ -8.37709˚ 44 nm 106 nm 277° / 276° A Coruna

Altitude Profile

Advertisement - Login to hide

LEAS

Details ICAO LEAS (OVD)
Name Asturias
Region Spain
Timezone Europe/Madrid (UTC+2.0)
Stats Elevation 416 ft / 127 m (AMSL)
Location 43.563496° -6.034670°
Runways 1
Magnetic Variation 1.570° W

METAR

LEAS 242000Z 09003KT 2500 BR -RA FEW004 SCT007 16/16 Q1016 TEMPO 4000

Decode

TAF

TAF AMD TAF AMD LEAS 241657Z 2416/2515 07007KT 6000 SCT010 BKN016 TX18/2513Z TN14/2505Z TEMPO 2416/2420 3000 BR BKN014 PROB30 TEMPO 2416/2422 2000 -SHRA BR BKN010 SCT030TCU BECMG 2420/2423 2500 BR BKN010 TEMPO 2504/2510 1400 BCFG BKN004 PROB40 TEMPO 2505/2510 0500 FG BKN002 TEMPO 2509/2515 8000 SHRA SCT012 BKN025TCU

Decode

Departure Runways

ID Width Length Bearing (true) Bearing (mag) Surface Threshold Offset Overrun Length
11 148 ft / 45 m 7,216 ft / 2,200 m 108.09° 109.66° Asphalt 0 ft / 0 m 164 ft / 50 m
29 148 ft / 45 m 7,216 ft / 2,200 m 288.10° 289.67° Asphalt 0 ft / 0 m 164 ft / 50 m

LECO

Details ICAO LECO (LCG)
Name A Coruna
Region Spain
Timezone Europe/Madrid (UTC+2.0)
Stats Elevation 323 ft / 98 m (AMSL)
Location 43.302264° -8.377086°
Runways 1
Magnetic Variation 2.332° W

METAR

LECO 242000Z VRB02KT 9999 FEW028 18/14 Q1014 NOSIG

Decode

TAF

TAF LECO 241400Z 2415/2515 03008KT 9999 FEW040 TX24/2415Z TN13/2506Z PROB40 TEMPO 2416/2515 SHRA SCT035TCU PROB30 TEMPO 2416/2419 33012G22KT TSRA SCT030CB PROB30 TEMPO 2500/2506 3000 BR

Decode

Destination Runways

ID Width Length Bearing (true) Bearing (mag) Surface Threshold Offset Overrun Length
04 148 ft / 45 m 6,371 ft / 1,942 m 30.94° 33.27° Asphalt 0 ft / 0 m 194 ft / 59 m
22 148 ft / 45 m 6,371 ft / 1,942 m 210.94° 213.27° Asphalt 0 ft / 0 m 203 ft / 62 m

Approach Navaids

Runway Type Ident Frequency Range Bearing (true) Bearing (mag) Slope Elevation
22 Localiser LCO 109.90 MHz 18 nm / 33 km 210.89° 213.22° - 329 ft / 100 m (AMSL)
22 Glidescope LCO 109.90 MHz 10 nm / 19 km 210.94° 213.27° 3.00° 323 ft / 98 m (AMSL)
22 DME LCO 109.90 MHz 18 nm / 33 km - - - 293 ft / 89 m (AMSL)

Popular Alternatives